sensor_id;sensor_type;location;lat;lon;timestamp;temperature;humidity
939;DHT22;456;53.584;9.968;2022-08-03T00:01:03;18.30;48.70
939;DHT22;456;53.584;9.968;2022-08-03T00:03:28;18.20;48.50
939;DHT22;456;53.584;9.968;2022-08-03T00:05:54;18.20;48.50
939;DHT22;456;53.584;9.968;2022-08-03T00:08:20;18.30;48.60
939;DHT22;456;53.584;9.968;2022-08-03T00:10:45;18.20;48.60
939;DHT22;456;53.584;9.968;2022-08-03T00:13:11;18.20;48.50
939;DHT22;456;53.584;9.968;2022-08-03T00:15:41;18.30;49.40
939;DHT22;456;53.584;9.968;2022-08-03T00:18:07;18.20;48.50
939;DHT22;456;53.584;9.968;2022-08-03T00:20:33;18.30;48.70
939;DHT22;456;53.584;9.968;2022-08-03T00:22:59;18.30;48.50
939;DHT22;456;53.584;9.968;2022-08-03T00:25:24;18.30;48.60
939;DHT22;456;53.584;9.968;2022-08-03T00:27:50;18.20;48.50
939;DHT22;456;53.584;9.968;2022-08-03T00:30:16;18.20;48.70
939;DHT22;456;53.584;9.968;2022-08-03T00:32:41;18.20;48.50
939;DHT22;456;53.584;9.968;2022-08-03T00:35:07;18.20;48.50
939;DHT22;456;53.584;9.968;2022-08-03T00:37:33;18.30;48.70
939;DHT22;456;53.584;9.968;2022-08-03T00:39:58;18.20;48.50
939;DHT22;456;53.584;9.968;2022-08-03T00:42:24;18.30;48.60
939;DHT22;456;53.584;9.968;2022-08-03T00:44:50;18.20;48.50
939;DHT22;456;53.584;9.968;2022-08-03T00:47:16;18.30;48.60
939;DHT22;456;53.584;9.968;2022-08-03T00:49:42;18.20;48.50
939;DHT22;456;53.584;9.968;2022-08-03T00:52:08;18.30;48.60
939;DHT22;456;53.584;9.968;2022-08-03T00:54:36;18.30;48.60
939;DHT22;456;53.584;9.968;2022-08-03T00:57:03;18.20;48.40
939;DHT22;456;53.584;9.968;2022-08-03T00:59:29;18.30;48.70
939;DHT22;456;53.584;9.968;2022-08-03T01:01:55;18.30;48.70
939;DHT22;456;53.584;9.968;2022-08-03T01:04:20;18.20;48.50
939;DHT22;456;53.584;9.968;2022-08-03T01:07:02;18.30;48.60
939;DHT22;456;53.584;9.968;2022-08-03T01:09:59;18.30;48.60
939;DHT22;456;53.584;9.968;2022-08-03T01:12:37;18.30;48.50
939;DHT22;456;53.584;9.968;2022-08-03T01:17:54;18.30;48.60
939;DHT22;456;53.584;9.968;2022-08-03T01:20:21;18.20;48.50
939;DHT22;456;53.584;9.968;2022-08-03T01:23:15;18.20;48.50
939;DHT22;456;53.584;9.968;2022-08-03T01:31:26;18.30;48.80
939;DHT22;456;53.584;9.968;2022-08-03T01:33:58;18.20;48.60
939;DHT22;456;53.584;9.968;2022-08-03T01:36:29;18.30;48.80
939;DHT22;456;53.584;9.968;2022-08-03T01:39:03;18.30;48.70
939;DHT22;456;53.584;9.968;2022-08-03T01:41:43;18.20;48.50
939;DHT22;456;53.584;9.968;2022-08-03T01:44:11;18.20;48.60
939;DHT22;456;53.584;9.968;2022-08-03T01:46:38;18.30;48.80
939;DHT22;456;53.584;9.968;2022-08-03T01:49:08;18.20;48.60
939;DHT22;456;53.584;9.968;2022-08-03T01:51:37;18.20;48.50
939;DHT22;456;53.584;9.968;2022-08-03T01:54:04;18.20;48.60
939;DHT22;456;53.584;9.968;2022-08-03T01:56:30;18.30;48.60
939;DHT22;456;53.584;9.968;2022-08-03T01:58:59;18.20;49.20
939;DHT22;456;53.584;9.968;2022-08-03T02:01:26;18.20;48.70
939;DHT22;456;53.584;9.968;2022-08-03T02:03:53;18.20;48.70
939;DHT22;456;53.584;9.968;2022-08-03T02:06:21;18.20;48.50
939;DHT22;456;53.584;9.968;2022-08-03T02:08:47;18.30;48.70
939;DHT22;456;53.584;9.968;2022-08-03T02:11:13;18.30;48.60
939;DHT22;456;53.584;9.968;2022-08-03T02:13:40;18.30;48.70
939;DHT22;456;53.584;9.968;2022-08-03T02:16:06;18.20;48.70
939;DHT22;456;53.584;9.968;2022-08-03T02:18:33;18.30;48.70
939;DHT22;456;53.584;9.968;2022-08-03T02:21:02;18.20;48.60
939;DHT22;456;53.584;9.968;2022-08-03T02:23:29;18.20;48.60
939;DHT22;456;53.584;9.968;2022-08-03T02:25:57;18.30;48.70
939;DHT22;456;53.584;9.968;2022-08-03T02:28:39;18.30;48.80
939;DHT22;456;53.584;9.968;2022-08-03T02:31:12;18.20;48.60
939;DHT22;456;53.584;9.968;2022-08-03T02:33:45;18.20;48.60
939;DHT22;456;53.584;9.968;2022-08-03T02:36:13;18.20;48.60
939;DHT22;456;53.584;9.968;2022-08-03T02:38:42;18.30;48.70
939;DHT22;456;53.584;9.968;2022-08-03T02:41:14;18.20;48.60
939;DHT22;456;53.584;9.968;2022-08-03T02:43:44;18.20;48.50
939;DHT22;456;53.584;9.968;2022-08-03T02:46:12;18.20;48.60
939;DHT22;456;53.584;9.968;2022-08-03T02:48:40;18.20;48.50
939;DHT22;456;53.584;9.968;2022-08-03T02:51:08;18.30;49.50
939;DHT22;456;53.584;9.968;2022-08-03T02:53:34;18.20;48.60
939;DHT22;456;53.584;9.968;2022-08-03T02:56:01;18.20;48.60
939;DHT22;456;53.584;9.968;2022-08-03T02:58:28;18.30;48.80
939;DHT22;456;53.584;9.968;2022-08-03T03:00:56;18.30;48.70
939;DHT22;456;53.584;9.968;2022-08-03T03:03:22;18.20;48.70
939;DHT22;456;53.584;9.968;2022-08-03T03:05:50;18.20;48.70
939;DHT22;456;53.584;9.968;2022-08-03T03:08:18;18.20;48.70
939;DHT22;456;53.584;9.968;2022-08-03T03:10:44;18.20;48.50
939;DHT22;456;53.584;9.968;2022-08-03T03:13:12;18.30;48.70
939;DHT22;456;53.584;9.968;2022-08-03T03:15:40;18.20;48.60
939;DHT22;456;53.584;9.968;2022-08-03T03:18:06;18.20;48.60
939;DHT22;456;53.584;9.968;2022-08-03T03:20:36;18.20;48.60
939;DHT22;456;53.584;9.968;2022-08-03T03:23:03;18.20;48.60
939;DHT22;456;53.584;9.968;2022-08-03T03:25:32;18.20;48.80
939;DHT22;456;53.584;9.968;2022-08-03T03:27:59;18.30;48.80
939;DHT22;456;53.584;9.968;2022-08-03T03:30:26;18.20;48.60
939;DHT22;456;53.584;9.968;2022-08-03T03:32:52;18.20;48.70
939;DHT22;456;53.584;9.968;2022-08-03T03:35:18;18.20;48.70
939;DHT22;456;53.584;9.968;2022-08-03T03:37:44;18.30;48.80
939;DHT22;456;53.584;9.968;2022-08-03T03:40:10;18.20;48.70
939;DHT22;456;53.584;9.968;2022-08-03T03:42:36;18.20;48.60
939;DHT22;456;53.584;9.968;2022-08-03T03:45:06;18.20;48.60
939;DHT22;456;53.584;9.968;2022-08-03T03:47:35;18.20;48.60
939;DHT22;456;53.584;9.968;2022-08-03T03:50:04;18.20;48.70
939;DHT22;456;53.584;9.968;2022-08-03T03:52:31;18.20;48.60
939;DHT22;456;53.584;9.968;2022-08-03T03:54:57;18.20;48.70
939;DHT22;456;53.584;9.968;2022-08-03T03:57:22;18.20;48.70
939;DHT22;456;53.584;9.968;2022-08-03T03:59:48;18.30;48.80
939;DHT22;456;53.584;9.968;2022-08-03T04:02:14;18.20;48.80
939;DHT22;456;53.584;9.968;2022-08-03T04:04:39;18.20;49.40
939;DHT22;456;53.584;9.968;2022-08-03T04:07:24;18.30;48.90
939;DHT22;456;53.584;9.968;2022-08-03T04:10:16;18.20;48.70
939;DHT22;456;53.584;9.968;2022-08-03T04:13:02;18.20;48.70
939;DHT22;456;53.584;9.968;2022-08-03T04:15:30;18.30;48.80
939;DHT22;456;53.584;9.968;2022-08-03T04:17:58;18.20;48.60
939;DHT22;456;53.584;9.968;2022-08-03T04:20:27;18.20;48.60
939;DHT22;456;53.584;9.968;2022-08-03T04:22:55;18.20;48.80
939;DHT22;456;53.584;9.968;2022-08-03T04:25:27;18.20;48.60
939;DHT22;456;53.584;9.968;2022-08-03T04:27:55;18.20;48.70
939;DHT22;456;53.584;9.968;2022-08-03T04:30:25;18.20;48.70
939;DHT22;456;53.584;9.968;2022-08-03T04:32:53;18.20;48.70
939;DHT22;456;53.584;9.968;2022-08-03T04:35:19;18.20;48.70
939;DHT22;456;53.584;9.968;2022-08-03T04:37:47;18.20;48.60
939;DHT22;456;53.584;9.968;2022-08-03T04:40:33;18.20;48.70
939;DHT22;456;53.584;9.968;2022-08-03T04:43:00;18.20;48.70
939;DHT22;456;53.584;9.968;2022-08-03T04:45:27;18.20;48.70
939;DHT22;456;53.584;9.968;2022-08-03T04:47:54;18.20;48.80
939;DHT22;456;53.584;9.968;2022-08-03T04:50:20;18.20;48.70
939;DHT22;456;53.584;9.968;2022-08-03T04:52:47;18.20;48.70
939;DHT22;456;53.584;9.968;2022-08-03T04:55:27;18.20;48.80
939;DHT22;456;53.584;9.968;2022-08-03T04:57:53;18.20;48.70
939;DHT22;456;53.584;9.968;2022-08-03T05:00:18;18.20;48.70
939;DHT22;456;53.584;9.968;2022-08-03T05:02:44;18.20;48.70
939;DHT22;456;53.584;9.968;2022-08-03T05:05:10;18.20;49.40
939;DHT22;456;53.584;9.968;2022-08-03T05:07:36;18.20;48.80
939;DHT22;456;53.584;9.968;2022-08-03T05:10:06;18.20;48.60
939;DHT22;456;53.584;9.968;2022-08-03T05:12:32;18.20;48.80
939;DHT22;456;53.584;9.968;2022-08-03T05:14:58;18.20;48.70
939;DHT22;456;53.584;9.968;2022-08-03T05:17:24;18.20;48.70
939;DHT22;456;53.584;9.968;2022-08-03T05:19:50;18.20;48.70
939;DHT22;456;53.584;9.968;2022-08-03T05:22:15;18.20;48.70
939;DHT22;456;53.584;9.968;2022-08-03T05:24:41;18.20;48.70
939;DHT22;456;53.584;9.968;2022-08-03T05:27:06;18.20;48.80
939;DHT22;456;53.584;9.968;2022-08-03T05:29:32;18.20;48.70
939;DHT22;456;53.584;9.968;2022-08-03T05:31:57;18.20;48.80
939;DHT22;456;53.584;9.968;2022-08-03T05:34:23;18.20;49.50
939;DHT22;456;53.584;9.968;2022-08-03T05:36:49;18.20;48.80
939;DHT22;456;53.584;9.968;2022-08-03T05:39:14;18.20;48.80
939;DHT22;456;53.584;9.968;2022-08-03T05:41:40;18.20;48.80
939;DHT22;456;53.584;9.968;2022-08-03T05:44:05;18.20;48.80
939;DHT22;456;53.584;9.968;2022-08-03T05:46:31;18.30;48.90
939;DHT22;456;53.584;9.968;2022-08-03T05:48:56;18.20;48.80
939;DHT22;456;53.584;9.968;2022-08-03T05:51:22;18.20;48.80
939;DHT22;456;53.584;9.968;2022-08-03T05:53:48;18.20;48.80
939;DHT22;456;53.584;9.968;2022-08-03T05:56:13;18.20;48.80
939;DHT22;456;53.584;9.968;2022-08-03T05:58:40;18.20;48.80
939;DHT22;456;53.584;9.968;2022-08-03T06:01:05;18.20;48.80
939;DHT22;456;53.584;9.968;2022-08-03T06:03:31;18.20;48.80
939;DHT22;456;53.584;9.968;2022-08-03T06:05:56;18.20;48.80
939;DHT22;456;53.584;9.968;2022-08-03T06:08:22;18.20;48.80
939;DHT22;456;53.584;9.968;2022-08-03T06:10:49;18.20;48.80
939;DHT22;456;53.584;9.968;2022-08-03T06:13:14;18.20;48.80
939;DHT22;456;53.584;9.968;2022-08-03T06:15:40;18.20;48.80
939;DHT22;456;53.584;9.968;2022-08-03T06:18:06;18.20;48.70
939;DHT22;456;53.584;9.968;2022-08-03T06:20:32;18.20;48.80
939;DHT22;456;53.584;9.968;2022-08-03T06:22:58;18.20;48.80
939;DHT22;456;53.584;9.968;2022-08-03T06:25:25;18.20;48.80
939;DHT22;456;53.584;9.968;2022-08-03T06:27:50;18.20;48.80
939;DHT22;456;53.584;9.968;2022-08-03T06:30:16;18.20;48.80
939;DHT22;456;53.584;9.968;2022-08-03T06:32:43;18.20;48.90
939;DHT22;456;53.584;9.968;2022-08-03T06:35:09;18.20;48.80
939;DHT22;456;53.584;9.968;2022-08-03T06:37:49;18.20;49.00
939;DHT22;456;53.584;9.968;2022-08-03T06:40:17;18.20;48.90
939;DHT22;456;53.584;9.968;2022-08-03T06:42:44;18.20;48.90
939;DHT22;456;53.584;9.968;2022-08-03T06:45:10;18.20;48.90
939;DHT22;456;53.584;9.968;2022-08-03T06:47:37;18.20;48.90
939;DHT22;456;53.584;9.968;2022-08-03T06:50:07;18.20;48.80
939;DHT22;456;53.584;9.968;2022-08-03T06:52:33;18.20;48.90
939;DHT22;456;53.584;9.968;2022-08-03T06:54:59;18.20;48.90
939;DHT22;456;53.584;9.968;2022-08-03T06:57:24;18.20;48.90
939;DHT22;456;53.584;9.968;2022-08-03T06:59:50;18.20;48.90
939;DHT22;456;53.584;9.968;2022-08-03T07:02:16;18.20;48.90
939;DHT22;456;53.584;9.968;2022-08-03T07:04:43;18.20;48.90
939;DHT22;456;53.584;9.968;2022-08-03T07:07:09;18.20;48.90
939;DHT22;456;53.584;9.968;2022-08-03T07:09:35;18.20;48.90
939;DHT22;456;53.584;9.968;2022-08-03T07:12:00;18.20;48.80
939;DHT22;456;53.584;9.968;2022-08-03T07:14:27;18.20;48.90
939;DHT22;456;53.584;9.968;2022-08-03T07:16:52;18.20;48.90
939;DHT22;456;53.584;9.968;2022-08-03T07:19:18;18.20;48.80
939;DHT22;456;53.584;9.968;2022-08-03T07:21:43;18.20;48.90
939;DHT22;456;53.584;9.968;2022-08-03T07:24:10;18.20;49.00
939;DHT22;456;53.584;9.968;2022-08-03T07:26:35;18.20;48.90
939;DHT22;456;53.584;9.968;2022-08-03T07:29:01;18.20;48.90
939;DHT22;456;53.584;9.968;2022-08-03T07:31:27;18.20;48.80
939;DHT22;456;53.584;9.968;2022-08-03T07:33:52;18.20;49.60
939;DHT22;456;53.584;9.968;2022-08-03T07:36:18;18.20;49.00
939;DHT22;456;53.584;9.968;2022-08-03T07:38:44;18.20;48.90
939;DHT22;456;53.584;9.968;2022-08-03T07:41:09;18.20;48.90
939;DHT22;456;53.584;9.968;2022-08-03T07:43:35;18.20;48.90
939;DHT22;456;53.584;9.968;2022-08-03T07:46:01;18.20;49.00
939;DHT22;456;53.584;9.968;2022-08-03T07:48:26;18.20;48.90
939;DHT22;456;53.584;9.968;2022-08-03T07:50:52;18.20;48.90
939;DHT22;456;53.584;9.968;2022-08-03T07:53:17;18.20;48.90
939;DHT22;456;53.584;9.968;2022-08-03T07:55:43;18.20;49.00
939;DHT22;456;53.584;9.968;2022-08-03T07:58:11;18.20;48.90
939;DHT22;456;53.584;9.968;2022-08-03T08:00:40;18.20;49.00
939;DHT22;456;53.584;9.968;2022-08-03T08:03:06;18.20;49.00
939;DHT22;456;53.584;9.968;2022-08-03T08:05:32;18.20;48.90
939;DHT22;456;53.584;9.968;2022-08-03T08:07:59;18.20;49.00
939;DHT22;456;53.584;9.968;2022-08-03T08:10:24;18.20;48.90
939;DHT22;456;53.584;9.968;2022-08-03T08:12:50;18.20;48.90
939;DHT22;456;53.584;9.968;2022-08-03T08:15:16;18.20;48.90
939;DHT22;456;53.584;9.968;2022-08-03T08:17:50;18.20;48.90
939;DHT22;456;53.584;9.968;2022-08-03T08:20:21;18.20;49.00
939;DHT22;456;53.584;9.968;2022-08-03T08:22:47;18.20;49.00
939;DHT22;456;53.584;9.968;2022-08-03T08:25:13;18.20;48.90
939;DHT22;456;53.584;9.968;2022-08-03T08:27:49;18.20;49.00
939;DHT22;456;53.584;9.968;2022-08-03T08:30:17;18.20;49.10
939;DHT22;456;53.584;9.968;2022-08-03T08:32:43;18.20;49.00
939;DHT22;456;53.584;9.968;2022-08-03T08:35:10;18.20;49.10
939;DHT22;456;53.584;9.968;2022-08-03T08:37:36;18.20;49.00
939;DHT22;456;53.584;9.968;2022-08-03T08:40:03;18.20;49.00
939;DHT22;456;53.584;9.968;2022-08-03T08:42:33;18.20;49.00
939;DHT22;456;53.584;9.968;2022-08-03T08:45:02;18.20;49.10
939;DHT22;456;53.584;9.968;2022-08-03T08:47:30;18.20;49.00
939;DHT22;456;53.584;9.968;2022-08-03T08:49:58;18.20;49.00
939;DHT22;456;53.584;9.968;2022-08-03T08:52:25;18.20;49.10
939;DHT22;456;53.584;9.968;2022-08-03T08:54:56;18.20;49.00
939;DHT22;456;53.584;9.968;2022-08-03T08:57:27;18.20;49.10
939;DHT22;456;53.584;9.968;2022-08-03T08:59:54;18.20;49.00
939;DHT22;456;53.584;9.968;2022-08-03T09:02:22;18.20;49.10
939;DHT22;456;53.584;9.968;2022-08-03T09:04:48;18.20;49.10
939;DHT22;456;53.584;9.968;2022-08-03T09:07:14;18.20;49.10
939;DHT22;456;53.584;9.968;2022-08-03T09:09:39;18.20;49.10
939;DHT22;456;53.584;9.968;2022-08-03T09:12:05;18.20;49.10
939;DHT22;456;53.584;9.968;2022-08-03T09:14:32;18.20;49.00
939;DHT22;456;53.584;9.968;2022-08-03T09:17:00;18.20;49.00
939;DHT22;456;53.584;9.968;2022-08-03T09:19:27;18.20;48.90
939;DHT22;456;53.584;9.968;2022-08-03T09:22:10;18.20;48.90
939;DHT22;456;53.584;9.968;2022-08-03T09:24:38;18.20;49.10
939;DHT22;456;53.584;9.968;2022-08-03T09:27:17;18.20;49.00
939;DHT22;456;53.584;9.968;2022-08-03T09:29:50;18.20;49.00
939;DHT22;456;53.584;9.968;2022-08-03T09:32:23;18.20;49.10
939;DHT22;456;53.584;9.968;2022-08-03T09:34:50;18.20;49.10
939;DHT22;456;53.584;9.968;2022-08-03T09:37:19;18.20;49.10
939;DHT22;456;53.584;9.968;2022-08-03T09:39:45;18.20;49.00
939;DHT22;456;53.584;9.968;2022-08-03T09:42:18;18.20;49.10
939;DHT22;456;53.584;9.968;2022-08-03T09:44:47;18.20;49.10
939;DHT22;456;53.584;9.968;2022-08-03T09:47:27;18.20;49.10
939;DHT22;456;53.584;9.968;2022-08-03T09:50:01;18.20;49.00
939;DHT22;456;53.584;9.968;2022-08-03T09:52:32;18.20;49.10
939;DHT22;456;53.584;9.968;2022-08-03T09:54:59;18.20;49.10
939;DHT22;456;53.584;9.968;2022-08-03T09:57:26;18.20;49.10
939;DHT22;456;53.584;9.968;2022-08-03T09:59:53;18.20;49.10
939;DHT22;456;53.584;9.968;2022-08-03T10:02:30;18.20;49.00
939;DHT22;456;53.584;9.968;2022-08-03T10:04:56;18.20;49.10
939;DHT22;456;53.584;9.968;2022-08-03T10:07:23;18.20;49.00
939;DHT22;456;53.584;9.968;2022-08-03T10:10:00;18.20;49.10
939;DHT22;456;53.584;9.968;2022-08-03T10:12:26;18.20;49.10
939;DHT22;456;53.584;9.968;2022-08-03T10:14:53;18.20;49.10
939;DHT22;456;53.584;9.968;2022-08-03T10:17:20;18.20;49.70
939;DHT22;456;53.584;9.968;2022-08-03T10:19:47;18.20;49.00
939;DHT22;456;53.584;9.968;2022-08-03T10:22:13;18.20;49.10
939;DHT22;456;53.584;9.968;2022-08-03T10:24:47;18.20;49.10
939;DHT22;456;53.584;9.968;2022-08-03T10:27:14;18.20;49.20
939;DHT22;456;53.584;9.968;2022-08-03T10:29:44;18.20;49.10
939;DHT22;456;53.584;9.968;2022-08-03T10:34:50;18.20;49.20
939;DHT22;456;53.584;9.968;2022-08-03T10:37:16;18.20;49.00
939;DHT22;456;53.584;9.968;2022-08-03T10:39:43;18.20;49.00
939;DHT22;456;53.584;9.968;2022-08-03T10:42:20;18.20;49.20
939;DHT22;456;53.584;9.968;2022-08-03T10:44:49;18.20;49.20
939;DHT22;456;53.584;9.968;2022-08-03T10:47:17;18.20;49.20
939;DHT22;456;53.584;9.968;2022-08-03T10:49:43;18.20;49.10
939;DHT22;456;53.584;9.968;2022-08-03T10:52:11;18.20;49.10
939;DHT22;456;53.584;9.968;2022-08-03T10:54:41;18.20;49.10
939;DHT22;456;53.584;9.968;2022-08-03T10:57:45;18.20;49.00
939;DHT22;456;53.584;9.968;2022-08-03T11:00:20;18.20;49.00
939;DHT22;456;53.584;9.968;2022-08-03T11:05:42;18.20;49.10
939;DHT22;456;53.584;9.968;2022-08-03T11:08:32;18.20;49.00
939;DHT22;456;53.584;9.968;2022-08-03T11:14:02;18.20;49.10
939;DHT22;456;53.584;9.968;2022-08-03T11:16:37;18.20;49.00
939;DHT22;456;53.584;9.968;2022-08-03T11:19:06;18.20;49.10
939;DHT22;456;53.584;9.968;2022-08-03T11:43:02;18.20;49.10
939;DHT22;456;53.584;9.968;2022-08-03T11:45:28;18.20;49.10
939;DHT22;456;53.584;9.968;2022-08-03T11:47:56;18.20;49.20
939;DHT22;456;53.584;9.968;2022-08-03T11:50:23;18.20;49.20
939;DHT22;456;53.584;9.968;2022-08-03T11:52:50;18.20;49.20
939;DHT22;456;53.584;9.968;2022-08-03T11:55:18;18.20;49.20
939;DHT22;456;53.584;9.968;2022-08-03T11:57:45;18.20;49.20
939;DHT22;456;53.584;9.968;2022-08-03T12:00:31;18.20;49.20
939;DHT22;456;53.584;9.968;2022-08-03T12:03:03;18.20;49.10
939;DHT22;456;53.584;9.968;2022-08-03T12:08:16;18.20;49.10
939;DHT22;456;53.584;9.968;2022-08-03T12:10:47;18.20;49.10
939;DHT22;456;53.584;9.968;2022-08-03T12:13:13;18.20;49.10
939;DHT22;456;53.584;9.968;2022-08-03T12:15:40;18.20;49.10
939;DHT22;456;53.584;9.968;2022-08-03T12:18:16;18.20;49.00
939;DHT22;456;53.584;9.968;2022-08-03T12:20:45;18.20;49.20
939;DHT22;456;53.584;9.968;2022-08-03T12:23:12;18.20;49.80
939;DHT22;456;53.584;9.968;2022-08-03T12:25:40;18.20;49.10
939;DHT22;456;53.584;9.968;2022-08-03T12:28:16;18.20;49.20
939;DHT22;456;53.584;9.968;2022-08-03T12:30:45;18.20;49.00
939;DHT22;456;53.584;9.968;2022-08-03T12:33:20;18.20;49.10
939;DHT22;456;53.584;9.968;2022-08-03T12:35:48;18.20;49.10
939;DHT22;456;53.584;9.968;2022-08-03T12:38:19;18.20;49.20
939;DHT22;456;53.584;9.968;2022-08-03T12:40:55;18.20;49.30
939;DHT22;456;53.584;9.968;2022-08-03T12:43:21;18.20;49.20
939;DHT22;456;53.584;9.968;2022-08-03T12:45:47;18.20;49.20
939;DHT22;456;53.584;9.968;2022-08-03T12:48:12;18.20;49.20
939;DHT22;456;53.584;9.968;2022-08-03T12:50:38;18.20;49.20
939;DHT22;456;53.584;9.968;2022-08-03T12:53:08;18.20;49.10
939;DHT22;456;53.584;9.968;2022-08-03T12:55:35;18.20;49.10
939;DHT22;456;53.584;9.968;2022-08-03T12:58:05;18.20;49.20
939;DHT22;456;53.584;9.968;2022-08-03T13:00:32;18.20;49.10
939;DHT22;456;53.584;9.968;2022-08-03T13:05:24;18.20;49.10
939;DHT22;456;53.584;9.968;2022-08-03T13:07:50;18.20;49.10
939;DHT22;456;53.584;9.968;2022-08-03T13:10:30;18.20;49.10
939;DHT22;456;53.584;9.968;2022-08-03T13:12:56;18.20;49.10
939;DHT22;456;53.584;9.968;2022-08-03T13:15:23;18.20;49.10
939;DHT22;456;53.584;9.968;2022-08-03T13:17:51;18.20;49.10
939;DHT22;456;53.584;9.968;2022-08-03T13:20:17;18.20;49.10
939;DHT22;456;53.584;9.968;2022-08-03T13:22:46;18.20;49.20
939;DHT22;456;53.584;9.968;2022-08-03T13:25:12;18.20;49.10
939;DHT22;456;53.584;9.968;2022-08-03T13:27:39;18.20;49.10
939;DHT22;456;53.584;9.968;2022-08-03T13:30:06;18.20;49.20
939;DHT22;456;53.584;9.968;2022-08-03T13:32:32;18.20;49.20
939;DHT22;456;53.584;9.968;2022-08-03T13:34:58;18.20;49.10
939;DHT22;456;53.584;9.968;2022-08-03T13:37:24;18.20;49.10
939;DHT22;456;53.584;9.968;2022-08-03T13:39:50;18.20;49.10
939;DHT22;456;53.584;9.968;2022-08-03T13:42:16;18.20;49.20
939;DHT22;456;53.584;9.968;2022-08-03T13:44:41;18.20;49.10
939;DHT22;456;53.584;9.968;2022-08-03T13:47:07;18.20;49.10
939;DHT22;456;53.584;9.968;2022-08-03T13:49:33;18.20;49.20
939;DHT22;456;53.584;9.968;2022-08-03T13:51:58;18.20;49.10
939;DHT22;456;53.584;9.968;2022-08-03T13:54:24;18.20;49.10
939;DHT22;456;53.584;9.968;2022-08-03T13:56:50;18.20;49.10
939;DHT22;456;53.584;9.968;2022-08-03T13:59:19;18.20;49.10
939;DHT22;456;53.584;9.968;2022-08-03T14:01:46;18.20;49.20
939;DHT22;456;53.584;9.968;2022-08-03T14:04:13;18.20;49.10
939;DHT22;456;53.584;9.968;2022-08-03T14:06:39;18.20;49.20
939;DHT22;456;53.584;9.968;2022-08-03T14:09:04;18.20;49.20
939;DHT22;456;53.584;9.968;2022-08-03T14:11:30;18.20;49.10
939;DHT22;456;53.584;9.968;2022-08-03T14:13:56;18.20;49.10
939;DHT22;456;53.584;9.968;2022-08-03T14:16:21;18.20;49.10
939;DHT22;456;53.584;9.968;2022-08-03T14:18:47;18.20;49.20
939;DHT22;456;53.584;9.968;2022-08-03T14:21:13;18.20;49.20
939;DHT22;456;53.584;9.968;2022-08-03T14:23:39;18.20;49.20
939;DHT22;456;53.584;9.968;2022-08-03T14:26:06;18.20;49.20
939;DHT22;456;53.584;9.968;2022-08-03T14:28:32;18.20;49.20
939;DHT22;456;53.584;9.968;2022-08-03T14:30:57;18.20;49.10
939;DHT22;456;53.584;9.968;2022-08-03T14:33:23;18.20;49.20
939;DHT22;456;53.584;9.968;2022-08-03T14:35:49;18.20;49.20
939;DHT22;456;53.584;9.968;2022-08-03T14:38:16;18.20;49.20
939;DHT22;456;53.584;9.968;2022-08-03T14:40:41;18.20;49.10
939;DHT22;456;53.584;9.968;2022-08-03T14:43:07;18.20;49.20
939;DHT22;456;53.584;9.968;2022-08-03T14:45:33;18.20;49.10
939;DHT22;456;53.584;9.968;2022-08-03T14:47:58;18.20;49.20
939;DHT22;456;53.584;9.968;2022-08-03T14:50:25;18.20;49.10
939;DHT22;456;53.584;9.968;2022-08-03T14:52:50;18.20;49.20
939;DHT22;456;53.584;9.968;2022-08-03T14:55:16;18.20;49.10
939;DHT22;456;53.584;9.968;2022-08-03T14:57:42;18.20;49.20
939;DHT22;456;53.584;9.968;2022-08-03T15:00:08;18.20;49.20
939;DHT22;456;53.584;9.968;2022-08-03T15:02:33;18.20;49.20
939;DHT22;456;53.584;9.968;2022-08-03T15:04:59;18.20;49.10
939;DHT22;456;53.584;9.968;2022-08-03T15:07:25;18.20;49.20
939;DHT22;456;53.584;9.968;2022-08-03T15:09:50;18.20;49.20
939;DHT22;456;53.584;9.968;2022-08-03T15:12:16;18.20;49.20
939;DHT22;456;53.584;9.968;2022-08-03T15:14:42;18.20;49.20
939;DHT22;456;53.584;9.968;2022-08-03T15:17:07;18.20;49.20
939;DHT22;456;53.584;9.968;2022-08-03T15:19:33;18.20;49.10
939;DHT22;456;53.584;9.968;2022-08-03T15:21:58;18.20;49.20
939;DHT22;456;53.584;9.968;2022-08-03T15:24:24;18.20;49.10
939;DHT22;456;53.584;9.968;2022-08-03T15:26:50;18.20;49.10
939;DHT22;456;53.584;9.968;2022-08-03T15:29:16;18.20;49.10
939;DHT22;456;53.584;9.968;2022-08-03T15:31:42;18.20;49.10
939;DHT22;456;53.584;9.968;2022-08-03T15:34:08;18.20;49.00
939;DHT22;456;53.584;9.968;2022-08-03T15:36:33;18.20;49.10
939;DHT22;456;53.584;9.968;2022-08-03T15:38:59;18.20;49.10
939;DHT22;456;53.584;9.968;2022-08-03T15:41:24;18.20;49.10
939;DHT22;456;53.584;9.968;2022-08-03T15:43:50;18.20;49.20
939;DHT22;456;53.584;9.968;2022-08-03T15:46:17;18.20;49.20
939;DHT22;456;53.584;9.968;2022-08-03T15:48:43;18.20;49.20
939;DHT22;456;53.584;9.968;2022-08-03T15:51:09;18.20;49.10
939;DHT22;456;53.584;9.968;2022-08-03T15:53:35;18.20;49.10
939;DHT22;456;53.584;9.968;2022-08-03T15:56:01;18.20;49.20
939;DHT22;456;53.584;9.968;2022-08-03T15:58:27;18.20;49.20
939;DHT22;456;53.584;9.968;2022-08-03T16:00:55;18.20;49.10
939;DHT22;456;53.584;9.968;2022-08-03T16:03:22;18.20;49.10
939;DHT22;456;53.584;9.968;2022-08-03T16:05:47;18.20;49.10
939;DHT22;456;53.584;9.968;2022-08-03T16:08:13;18.20;49.10
939;DHT22;456;53.584;9.968;2022-08-03T16:10:39;18.20;49.20
939;DHT22;456;53.584;9.968;2022-08-03T16:13:05;18.20;49.10
939;DHT22;456;53.584;9.968;2022-08-03T16:15:31;18.20;49.20
939;DHT22;456;53.584;9.968;2022-08-03T16:17:57;18.20;49.10
939;DHT22;456;53.584;9.968;2022-08-03T16:20:22;18.20;49.20
939;DHT22;456;53.584;9.968;2022-08-03T16:22:48;18.20;49.20
939;DHT22;456;53.584;9.968;2022-08-03T16:25:15;18.20;49.90
939;DHT22;456;53.584;9.968;2022-08-03T16:27:42;18.20;49.20
939;DHT22;456;53.584;9.968;2022-08-03T16:30:09;18.20;49.20
939;DHT22;456;53.584;9.968;2022-08-03T16:32:35;18.20;49.10
939;DHT22;456;53.584;9.968;2022-08-03T16:35:03;18.20;49.10
939;DHT22;456;53.584;9.968;2022-08-03T16:37:29;18.20;49.20
939;DHT22;456;53.584;9.968;2022-08-03T16:39:54;18.20;49.20
939;DHT22;456;53.584;9.968;2022-08-03T16:42:20;18.20;49.20
939;DHT22;456;53.584;9.968;2022-08-03T16:44:46;18.20;49.20
939;DHT22;456;53.584;9.968;2022-08-03T16:47:12;18.20;49.10
939;DHT22;456;53.584;9.968;2022-08-03T16:49:37;18.20;49.20
939;DHT22;456;53.584;9.968;2022-08-03T16:52:03;18.20;49.20
939;DHT22;456;53.584;9.968;2022-08-03T16:54:29;18.20;49.20
939;DHT22;456;53.584;9.968;2022-08-03T16:56:54;18.20;49.90
939;DHT22;456;53.584;9.968;2022-08-03T16:59:20;18.20;49.30
939;DHT22;456;53.584;9.968;2022-08-03T17:01:46;18.20;49.30
939;DHT22;456;53.584;9.968;2022-08-03T17:04:12;18.20;49.20
939;DHT22;456;53.584;9.968;2022-08-03T17:06:40;18.20;49.20
939;DHT22;456;53.584;9.968;2022-08-03T17:09:10;18.20;49.20
939;DHT22;456;53.584;9.968;2022-08-03T17:11:41;18.20;49.20
939;DHT22;456;53.584;9.968;2022-08-03T17:14:06;18.20;49.20
939;DHT22;456;53.584;9.968;2022-08-03T17:16:32;18.20;49.20
939;DHT22;456;53.584;9.968;2022-08-03T17:19:02;18.20;49.20
939;DHT22;456;53.584;9.968;2022-08-03T17:21:30;18.20;49.20